sensor_id;sensor_type;location;lat;lon;timestamp;P1;durP1;ratioP1;P2;durP2;ratioP2
19183;SDS011;9724;51.194;6.856;2022-12-01T00:01:39;61.40;;;23.40;;
19183;SDS011;9724;51.194;6.856;2022-12-01T00:04:05;60.30;;;22.67;;
19183;SDS011;9724;51.194;6.856;2022-12-01T00:06:32;59.77;;;23.10;;
19183;SDS011;9724;51.194;6.856;2022-12-01T00:08:58;63.73;;;22.93;;
19183;SDS011;9724;51.194;6.856;2022-12-01T00:11:48;58.10;;;22.73;;
19183;SDS011;9724;51.194;6.856;2022-12-01T00:14:14;59.70;;;22.87;;
19183;SDS011;9724;51.194;6.856;2022-12-01T00:16:40;49.00;;;20.87;;
19183;SDS011;9724;51.194;6.856;2022-12-01T00:19:08;62.43;;;22.30;;
19183;SDS011;9724;51.194;6.856;2022-12-01T00:21:35;54.60;;;21.57;;
19183;SDS011;9724;51.194;6.856;2022-12-01T00:24:01;59.23;;;23.13;;
19183;SDS011;9724;51.194;6.856;2022-12-01T00:26:28;50.80;;;20.13;;
19183;SDS011;9724;51.194;6.856;2022-12-01T00:28:55;60.07;;;21.93;;
19183;SDS011;9724;51.194;6.856;2022-12-01T00:31:22;54.63;;;20.87;;
19183;SDS011;9724;51.194;6.856;2022-12-01T00:33:48;54.10;;;21.40;;
19183;SDS011;9724;51.194;6.856;2022-12-01T00:36:15;56.70;;;22.23;;
19183;SDS011;9724;51.194;6.856;2022-12-01T00:38:42;60.17;;;21.37;;
19183;SDS011;9724;51.194;6.856;2022-12-01T00:41:08;55.10;;;21.53;;
19183;SDS011;9724;51.194;6.856;2022-12-01T00:43:34;49.07;;;20.37;;
19183;SDS011;9724;51.194;6.856;2022-12-01T00:46:01;50.77;;;20.30;;
19183;SDS011;9724;51.194;6.856;2022-12-01T00:48:27;55.67;;;21.30;;
19183;SDS011;9724;51.194;6.856;2022-12-01T00:50:54;53.77;;;21.83;;
19183;SDS011;9724;51.194;6.856;2022-12-01T00:53:20;60.63;;;23.33;;
19183;SDS011;9724;51.194;6.856;2022-12-01T00:55:48;54.87;;;21.13;;
19183;SDS011;9724;51.194;6.856;2022-12-01T00:58:14;53.83;;;21.70;;
19183;SDS011;9724;51.194;6.856;2022-12-01T01:00:40;49.93;;;19.93;;
19183;SDS011;9724;51.194;6.856;2022-12-01T01:03:11;56.13;;;20.60;;
19183;SDS011;9724;51.194;6.856;2022-12-01T01:05:38;51.73;;;20.10;;
19183;SDS011;9724;51.194;6.856;2022-12-01T01:08:05;50.70;;;19.83;;
19183;SDS011;9724;51.194;6.856;2022-12-01T01:10:32;54.30;;;20.40;;
19183;SDS011;9724;51.194;6.856;2022-12-01T01:12:59;51.07;;;20.10;;
19183;SDS011;9724;51.194;6.856;2022-12-01T01:15:25;56.57;;;21.93;;
19183;SDS011;9724;51.194;6.856;2022-12-01T01:17:51;49.97;;;20.47;;
19183;SDS011;9724;51.194;6.856;2022-12-01T01:20:17;54.13;;;20.97;;
19183;SDS011;9724;51.194;6.856;2022-12-01T01:22:43;55.70;;;20.97;;
19183;SDS011;9724;51.194;6.856;2022-12-01T01:25:09;49.30;;;20.30;;
19183;SDS011;9724;51.194;6.856;2022-12-01T01:27:36;57.13;;;20.80;;
19183;SDS011;9724;51.194;6.856;2022-12-01T01:30:03;54.20;;;20.80;;
19183;SDS011;9724;51.194;6.856;2022-12-01T01:32:30;53.87;;;21.57;;
19183;SDS011;9724;51.194;6.856;2022-12-01T01:34:56;55.93;;;20.53;;
19183;SDS011;9724;51.194;6.856;2022-12-01T01:37:22;49.47;;;20.80;;
19183;SDS011;9724;51.194;6.856;2022-12-01T01:39:48;45.67;;;19.43;;
19183;SDS011;9724;51.194;6.856;2022-12-01T01:42:17;55.83;;;21.40;;
19183;SDS011;9724;51.194;6.856;2022-12-01T01:44:47;54.87;;;21.43;;
19183;SDS011;9724;51.194;6.856;2022-12-01T01:47:17;53.70;;;21.43;;
19183;SDS011;9724;51.194;6.856;2022-12-01T01:49:46;59.57;;;21.90;;
19183;SDS011;9724;51.194;6.856;2022-12-01T01:52:13;57.87;;;21.57;;
19183;SDS011;9724;51.194;6.856;2022-12-01T01:54:41;57.27;;;20.43;;
19183;SDS011;9724;51.194;6.856;2022-12-01T01:57:09;55.03;;;21.00;;
19183;SDS011;9724;51.194;6.856;2022-12-01T01:59:36;54.77;;;22.20;;
19183;SDS011;9724;51.194;6.856;2022-12-01T02:02:06;60.10;;;20.43;;
19183;SDS011;9724;51.194;6.856;2022-12-01T02:04:35;53.73;;;21.17;;
19183;SDS011;9724;51.194;6.856;2022-12-01T02:07:03;61.17;;;20.73;;
19183;SDS011;9724;51.194;6.856;2022-12-01T02:09:29;56.67;;;21.73;;
19183;SDS011;9724;51.194;6.856;2022-12-01T02:11:59;58.43;;;21.17;;
19183;SDS011;9724;51.194;6.856;2022-12-01T02:14:38;61.20;;;22.30;;
19183;SDS011;9724;51.194;6.856;2022-12-01T02:17:17;70.40;;;22.17;;
19183;SDS011;9724;51.194;6.856;2022-12-01T02:19:58;75.97;;;22.80;;
19183;SDS011;9724;51.194;6.856;2022-12-01T02:22:38;74.53;;;24.03;;
19183;SDS011;9724;51.194;6.856;2022-12-01T02:25:19;72.63;;;23.90;;
19183;SDS011;9724;51.194;6.856;2022-12-01T02:27:52;70.20;;;24.50;;
19183;SDS011;9724;51.194;6.856;2022-12-01T02:30:31;88.60;;;25.87;;
19183;SDS011;9724;51.194;6.856;2022-12-01T02:33:03;77.63;;;24.97;;
19183;SDS011;9724;51.194;6.856;2022-12-01T02:35:33;75.53;;;24.53;;
19183;SDS011;9724;51.194;6.856;2022-12-01T02:38:05;74.80;;;24.60;;
19183;SDS011;9724;51.194;6.856;2022-12-01T02:40:36;89.63;;;26.40;;
19183;SDS011;9724;51.194;6.856;2022-12-01T02:43:06;80.83;;;25.47;;
19183;SDS011;9724;51.194;6.856;2022-12-01T02:45:46;85.17;;;25.83;;
19183;SDS011;9724;51.194;6.856;2022-12-01T02:48:15;72.40;;;25.50;;
19183;SDS011;9724;51.194;6.856;2022-12-01T02:50:44;75.33;;;25.03;;
19183;SDS011;9724;51.194;6.856;2022-12-01T02:53:11;78.60;;;25.90;;
19183;SDS011;9724;51.194;6.856;2022-12-01T02:55:45;79.83;;;25.13;;
19183;SDS011;9724;51.194;6.856;2022-12-01T02:58:12;89.73;;;25.73;;
19183;SDS011;9724;51.194;6.856;2022-12-01T03:00:40;81.67;;;24.57;;
19183;SDS011;9724;51.194;6.856;2022-12-01T03:03:14;81.30;;;26.53;;
19183;SDS011;9724;51.194;6.856;2022-12-01T03:05:52;84.93;;;27.57;;
19183;SDS011;9724;51.194;6.856;2022-12-01T03:08:29;87.30;;;28.07;;
19183;SDS011;9724;51.194;6.856;2022-12-01T03:10:58;87.00;;;26.90;;
19183;SDS011;9724;51.194;6.856;2022-12-01T03:13:27;91.87;;;25.97;;
19183;SDS011;9724;51.194;6.856;2022-12-01T03:16:00;95.77;;;28.23;;
19183;SDS011;9724;51.194;6.856;2022-12-01T03:18:34;89.93;;;27.73;;
19183;SDS011;9724;51.194;6.856;2022-12-01T03:21:03;96.30;;;27.97;;
19183;SDS011;9724;51.194;6.856;2022-12-01T03:23:34;85.20;;;27.17;;
19183;SDS011;9724;51.194;6.856;2022-12-01T03:26:03;93.57;;;27.67;;
19183;SDS011;9724;51.194;6.856;2022-12-01T03:28:32;95.27;;;27.37;;
19183;SDS011;9724;51.194;6.856;2022-12-01T03:31:02;96.23;;;29.50;;
19183;SDS011;9724;51.194;6.856;2022-12-01T03:33:32;98.43;;;29.20;;
19183;SDS011;9724;51.194;6.856;2022-12-01T03:36:01;91.70;;;28.37;;
19183;SDS011;9724;51.194;6.856;2022-12-01T03:38:29;97.70;;;27.60;;
19183;SDS011;9724;51.194;6.856;2022-12-01T03:40:58;84.23;;;26.70;;
19183;SDS011;9724;51.194;6.856;2022-12-01T03:43:29;83.37;;;26.87;;
19183;SDS011;9724;51.194;6.856;2022-12-01T03:45:57;97.87;;;26.17;;
19183;SDS011;9724;51.194;6.856;2022-12-01T03:48:30;79.40;;;26.17;;
19183;SDS011;9724;51.194;6.856;2022-12-01T03:51:00;82.17;;;27.20;;
19183;SDS011;9724;51.194;6.856;2022-12-01T03:53:31;93.90;;;28.23;;
19183;SDS011;9724;51.194;6.856;2022-12-01T03:56:00;91.43;;;28.20;;
19183;SDS011;9724;51.194;6.856;2022-12-01T03:58:29;99.10;;;28.57;;
19183;SDS011;9724;51.194;6.856;2022-12-01T04:00:58;95.20;;;27.97;;
19183;SDS011;9724;51.194;6.856;2022-12-01T04:03:26;88.43;;;27.37;;
19183;SDS011;9724;51.194;6.856;2022-12-01T04:05:54;87.70;;;26.80;;
19183;SDS011;9724;51.194;6.856;2022-12-01T04:08:20;87.97;;;27.97;;
19183;SDS011;9724;51.194;6.856;2022-12-01T04:10:46;89.40;;;27.83;;
19183;SDS011;9724;51.194;6.856;2022-12-01T04:13:12;91.17;;;28.33;;
19183;SDS011;9724;51.194;6.856;2022-12-01T04:15:47;85.57;;;27.50;;
19183;SDS011;9724;51.194;6.856;2022-12-01T04:18:14;99.03;;;30.00;;
19183;SDS011;9724;51.194;6.856;2022-12-01T04:20:40;94.53;;;29.40;;
19183;SDS011;9724;51.194;6.856;2022-12-01T04:23:08;94.17;;;30.77;;
19183;SDS011;9724;51.194;6.856;2022-12-01T04:25:34;98.03;;;30.27;;
19183;SDS011;9724;51.194;6.856;2022-12-01T04:28:00;97.10;;;28.83;;
19183;SDS011;9724;51.194;6.856;2022-12-01T04:30:26;91.00;;;29.17;;
19183;SDS011;9724;51.194;6.856;2022-12-01T04:32:53;86.07;;;26.73;;
19183;SDS011;9724;51.194;6.856;2022-12-01T04:35:19;87.77;;;30.40;;
19183;SDS011;9724;51.194;6.856;2022-12-01T04:37:45;84.10;;;27.10;;
19183;SDS011;9724;51.194;6.856;2022-12-01T04:40:12;81.83;;;27.47;;
19183;SDS011;9724;51.194;6.856;2022-12-01T04:42:38;75.67;;;26.83;;
19183;SDS011;9724;51.194;6.856;2022-12-01T04:45:05;80.63;;;25.40;;
19183;SDS011;9724;51.194;6.856;2022-12-01T04:47:32;73.33;;;23.90;;
19183;SDS011;9724;51.194;6.856;2022-12-01T04:49:58;69.23;;;24.87;;
19183;SDS011;9724;51.194;6.856;2022-12-01T04:52:24;69.37;;;24.10;;
19183;SDS011;9724;51.194;6.856;2022-12-01T04:54:55;64.53;;;24.03;;
19183;SDS011;9724;51.194;6.856;2022-12-01T04:57:22;72.80;;;23.33;;
19183;SDS011;9724;51.194;6.856;2022-12-01T04:59:48;61.00;;;21.57;;
19183;SDS011;9724;51.194;6.856;2022-12-01T05:02:15;65.07;;;22.27;;
19183;SDS011;9724;51.194;6.856;2022-12-01T05:04:42;56.30;;;21.73;;
19183;SDS011;9724;51.194;6.856;2022-12-01T05:07:12;56.87;;;20.57;;
19183;SDS011;9724;51.194;6.856;2022-12-01T05:09:38;59.33;;;22.53;;
19183;SDS011;9724;51.194;6.856;2022-12-01T05:12:05;56.97;;;21.20;;
19183;SDS011;9724;51.194;6.856;2022-12-01T05:14:32;56.00;;;21.50;;
19183;SDS011;9724;51.194;6.856;2022-12-01T05:16:58;54.30;;;20.27;;
19183;SDS011;9724;51.194;6.856;2022-12-01T05:19:25;54.27;;;19.57;;
19183;SDS011;9724;51.194;6.856;2022-12-01T05:22:09;53.13;;;19.80;;
19183;SDS011;9724;51.194;6.856;2022-12-01T05:24:35;51.83;;;19.67;;
19183;SDS011;9724;51.194;6.856;2022-12-01T05:27:02;47.97;;;19.03;;
19183;SDS011;9724;51.194;6.856;2022-12-01T05:29:28;52.37;;;20.07;;
19183;SDS011;9724;51.194;6.856;2022-12-01T05:31:58;51.10;;;19.43;;
19183;SDS011;9724;51.194;6.856;2022-12-01T05:34:24;49.93;;;18.97;;
19183;SDS011;9724;51.194;6.856;2022-12-01T05:36:50;49.73;;;19.93;;
19183;SDS011;9724;51.194;6.856;2022-12-01T05:39:16;47.00;;;18.80;;
19183;SDS011;9724;51.194;6.856;2022-12-01T05:41:42;51.33;;;19.27;;
19183;SDS011;9724;51.194;6.856;2022-12-01T05:44:09;51.23;;;19.27;;
19183;SDS011;9724;51.194;6.856;2022-12-01T05:46:35;46.53;;;18.63;;
19183;SDS011;9724;51.194;6.856;2022-12-01T05:49:02;45.20;;;18.50;;
19183;SDS011;9724;51.194;6.856;2022-12-01T05:51:28;46.87;;;19.63;;
19183;SDS011;9724;51.194;6.856;2022-12-01T05:53:54;45.13;;;17.90;;
19183;SDS011;9724;51.194;6.856;2022-12-01T05:56:20;46.40;;;18.37;;
19183;SDS011;9724;51.194;6.856;2022-12-01T05:58:46;43.13;;;17.33;;
19183;SDS011;9724;51.194;6.856;2022-12-01T06:01:13;45.53;;;17.90;;
19183;SDS011;9724;51.194;6.856;2022-12-01T06:03:40;42.57;;;17.77;;
19183;SDS011;9724;51.194;6.856;2022-12-01T06:06:07;37.60;;;17.90;;
19183;SDS011;9724;51.194;6.856;2022-12-01T06:08:33;42.87;;;18.77;;
19183;SDS011;9724;51.194;6.856;2022-12-01T06:10:59;47.60;;;18.03;;
19183;SDS011;9724;51.194;6.856;2022-12-01T06:13:25;48.20;;;18.00;;
19183;SDS011;9724;51.194;6.856;2022-12-01T06:15:55;44.50;;;18.33;;
19183;SDS011;9724;51.194;6.856;2022-12-01T06:18:23;48.70;;;19.93;;
19183;SDS011;9724;51.194;6.856;2022-12-01T06:20:50;52.83;;;20.30;;
19183;SDS011;9724;51.194;6.856;2022-12-01T06:23:16;50.30;;;21.37;;
19183;SDS011;9724;51.194;6.856;2022-12-01T06:25:43;54.63;;;21.70;;
19183;SDS011;9724;51.194;6.856;2022-12-01T06:28:09;52.17;;;20.10;;
19183;SDS011;9724;51.194;6.856;2022-12-01T06:30:35;52.10;;;20.40;;
19183;SDS011;9724;51.194;6.856;2022-12-01T06:33:01;54.97;;;21.93;;
19183;SDS011;9724;51.194;6.856;2022-12-01T06:35:28;61.60;;;22.50;;
19183;SDS011;9724;51.194;6.856;2022-12-01T06:37:54;63.70;;;22.50;;
19183;SDS011;9724;51.194;6.856;2022-12-01T06:40:21;61.73;;;22.37;;
19183;SDS011;9724;51.194;6.856;2022-12-01T06:42:47;60.40;;;24.30;;
19183;SDS011;9724;51.194;6.856;2022-12-01T06:45:13;61.83;;;22.43;;
19183;SDS011;9724;51.194;6.856;2022-12-01T06:47:40;58.87;;;21.50;;
19183;SDS011;9724;51.194;6.856;2022-12-01T06:50:06;61.90;;;22.47;;
19183;SDS011;9724;51.194;6.856;2022-12-01T06:52:34;53.97;;;21.40;;
19183;SDS011;9724;51.194;6.856;2022-12-01T06:55:00;56.43;;;22.33;;
19183;SDS011;9724;51.194;6.856;2022-12-01T06:57:29;56.50;;;21.77;;
19183;SDS011;9724;51.194;6.856;2022-12-01T06:59:56;54.33;;;20.63;;
19183;SDS011;9724;51.194;6.856;2022-12-01T07:02:22;52.17;;;21.17;;
19183;SDS011;9724;51.194;6.856;2022-12-01T07:04:48;50.83;;;20.70;;
19183;SDS011;9724;51.194;6.856;2022-12-01T07:07:14;53.07;;;21.03;;
19183;SDS011;9724;51.194;6.856;2022-12-01T07:09:41;54.17;;;22.03;;
19183;SDS011;9724;51.194;6.856;2022-12-01T07:12:07;58.60;;;22.50;;
19183;SDS011;9724;51.194;6.856;2022-12-01T07:14:34;56.73;;;20.90;;
19183;SDS011;9724;51.194;6.856;2022-12-01T07:17:02;59.10;;;22.30;;
19183;SDS011;9724;51.194;6.856;2022-12-01T07:19:28;49.53;;;20.30;;
19183;SDS011;9724;51.194;6.856;2022-12-01T07:21:55;48.83;;;20.80;;
19183;SDS011;9724;51.194;6.856;2022-12-01T07:24:21;56.47;;;20.70;;
19183;SDS011;9724;51.194;6.856;2022-12-01T07:26:47;55.13;;;21.10;;
19183;SDS011;9724;51.194;6.856;2022-12-01T07:29:13;58.23;;;21.83;;
19183;SDS011;9724;51.194;6.856;2022-12-01T07:31:40;56.80;;;22.03;;
19183;SDS011;9724;51.194;6.856;2022-12-01T07:34:09;60.37;;;22.00;;
19183;SDS011;9724;51.194;6.856;2022-12-01T07:36:35;64.00;;;23.13;;
19183;SDS011;9724;51.194;6.856;2022-12-01T07:39:03;59.13;;;23.20;;
19183;SDS011;9724;51.194;6.856;2022-12-01T07:41:29;57.47;;;23.93;;
19183;SDS011;9724;51.194;6.856;2022-12-01T07:43:55;62.93;;;24.30;;
19183;SDS011;9724;51.194;6.856;2022-12-01T07:46:23;61.17;;;24.03;;
19183;SDS011;9724;51.194;6.856;2022-12-01T07:48:51;63.17;;;23.23;;
19183;SDS011;9724;51.194;6.856;2022-12-01T07:51:18;69.27;;;23.27;;
19183;SDS011;9724;51.194;6.856;2022-12-01T07:53:44;62.37;;;23.33;;
19183;SDS011;9724;51.194;6.856;2022-12-01T07:56:11;57.87;;;23.40;;
19183;SDS011;9724;51.194;6.856;2022-12-01T07:58:38;72.87;;;24.07;;
19183;SDS011;9724;51.194;6.856;2022-12-01T08:01:04;67.33;;;23.03;;
19183;SDS011;9724;51.194;6.856;2022-12-01T08:03:32;69.03;;;25.07;;
19183;SDS011;9724;51.194;6.856;2022-12-01T08:06:00;69.47;;;24.67;;
19183;SDS011;9724;51.194;6.856;2022-12-01T08:08:26;66.63;;;23.63;;
19183;SDS011;9724;51.194;6.856;2022-12-01T08:10:52;65.50;;;23.70;;
19183;SDS011;9724;51.194;6.856;2022-12-01T08:13:19;65.40;;;23.67;;
19183;SDS011;9724;51.194;6.856;2022-12-01T08:15:45;75.63;;;25.40;;
19183;SDS011;9724;51.194;6.856;2022-12-01T08:18:11;71.20;;;23.93;;
19183;SDS011;9724;51.194;6.856;2022-12-01T08:20:38;76.30;;;25.27;;
19183;SDS011;9724;51.194;6.856;2022-12-01T08:23:04;74.23;;;27.23;;
19183;SDS011;9724;51.194;6.856;2022-12-01T08:25:32;84.77;;;25.27;;
19183;SDS011;9724;51.194;6.856;2022-12-01T08:27:58;78.70;;;26.30;;
19183;SDS011;9724;51.194;6.856;2022-12-01T08:30:25;94.03;;;25.90;;
19183;SDS011;9724;51.194;6.856;2022-12-01T08:32:52;83.03;;;27.33;;
19183;SDS011;9724;51.194;6.856;2022-12-01T08:35:18;78.23;;;26.43;;
19183;SDS011;9724;51.194;6.856;2022-12-01T08:37:45;87.67;;;25.90;;
19183;SDS011;9724;51.194;6.856;2022-12-01T08:40:12;79.40;;;25.77;;
19183;SDS011;9724;51.194;6.856;2022-12-01T08:42:38;79.37;;;26.83;;
19183;SDS011;9724;51.194;6.856;2022-12-01T08:45:05;84.00;;;27.20;;
19183;SDS011;9724;51.194;6.856;2022-12-01T08:47:31;78.37;;;25.93;;
19183;SDS011;9724;51.194;6.856;2022-12-01T08:49:57;80.33;;;27.20;;
19183;SDS011;9724;51.194;6.856;2022-12-01T08:52:24;82.13;;;26.23;;
19183;SDS011;9724;51.194;6.856;2022-12-01T08:54:50;79.73;;;25.77;;
19183;SDS011;9724;51.194;6.856;2022-12-01T08:57:17;71.77;;;23.40;;
19183;SDS011;9724;51.194;6.856;2022-12-01T08:59:43;74.17;;;24.67;;
19183;SDS011;9724;51.194;6.856;2022-12-01T09:02:10;62.97;;;22.97;;
19183;SDS011;9724;51.194;6.856;2022-12-01T09:04:38;76.40;;;23.73;;
19183;SDS011;9724;51.194;6.856;2022-12-01T09:07:04;72.23;;;24.57;;
19183;SDS011;9724;51.194;6.856;2022-12-01T09:09:30;69.47;;;23.17;;
19183;SDS011;9724;51.194;6.856;2022-12-01T09:11:56;64.13;;;21.53;;
19183;SDS011;9724;51.194;6.856;2022-12-01T09:14:23;62.27;;;22.53;;
19183;SDS011;9724;51.194;6.856;2022-12-01T09:16:50;75.50;;;24.53;;
19183;SDS011;9724;51.194;6.856;2022-12-01T09:19:16;71.87;;;25.53;;
19183;SDS011;9724;51.194;6.856;2022-12-01T09:21:50;72.20;;;22.73;;
19183;SDS011;9724;51.194;6.856;2022-12-01T09:24:16;68.87;;;23.70;;
19183;SDS011;9724;51.194;6.856;2022-12-01T09:26:42;78.00;;;24.20;;
19183;SDS011;9724;51.194;6.856;2022-12-01T09:29:09;60.30;;;21.73;;
19183;SDS011;9724;51.194;6.856;2022-12-01T09:31:38;64.17;;;21.20;;
19183;SDS011;9724;51.194;6.856;2022-12-01T09:34:06;63.40;;;21.30;;
19183;SDS011;9724;51.194;6.856;2022-12-01T09:36:33;57.67;;;20.53;;
19183;SDS011;9724;51.194;6.856;2022-12-01T09:39:01;69.77;;;22.33;;
19183;SDS011;9724;51.194;6.856;2022-12-01T09:41:29;65.07;;;22.13;;
19183;SDS011;9724;51.194;6.856;2022-12-01T09:43:58;68.20;;;22.67;;
19183;SDS011;9724;51.194;6.856;2022-12-01T09:46:27;68.63;;;22.57;;
19183;SDS011;9724;51.194;6.856;2022-12-01T09:48:57;64.77;;;20.83;;
19183;SDS011;9724;51.194;6.856;2022-12-01T09:51:26;59.03;;;19.57;;
19183;SDS011;9724;51.194;6.856;2022-12-01T09:53:54;60.13;;;20.83;;
19183;SDS011;9724;51.194;6.856;2022-12-01T09:56:22;53.60;;;20.23;;
19183;SDS011;9724;51.194;6.856;2022-12-01T09:58:51;51.50;;;17.90;;
19183;SDS011;9724;51.194;6.856;2022-12-01T10:01:18;52.10;;;19.13;;
19183;SDS011;9724;51.194;6.856;2022-12-01T10:03:53;55.97;;;20.60;;
19183;SDS011;9724;51.194;6.856;2022-12-01T10:06:24;57.27;;;20.43;;
19183;SDS011;9724;51.194;6.856;2022-12-01T10:08:56;57.20;;;19.50;;
19183;SDS011;9724;51.194;6.856;2022-12-01T10:11:26;51.17;;;18.77;;
19183;SDS011;9724;51.194;6.856;2022-12-01T10:13:54;49.70;;;18.07;;
19183;SDS011;9724;51.194;6.856;2022-12-01T10:16:21;53.13;;;19.03;;
19183;SDS011;9724;51.194;6.856;2022-12-01T10:18:52;55.10;;;18.07;;
19183;SDS011;9724;51.194;6.856;2022-12-01T10:21:26;54.70;;;17.83;;
19183;SDS011;9724;51.194;6.856;2022-12-01T10:24:03;43.07;;;18.27;;
19183;SDS011;9724;51.194;6.856;2022-12-01T10:26:41;49.77;;;17.63;;
19183;SDS011;9724;51.194;6.856;2022-12-01T10:29:11;44.67;;;16.57;;
19183;SDS011;9724;51.194;6.856;2022-12-01T10:31:41;53.07;;;19.33;;
19183;SDS011;9724;51.194;6.856;2022-12-01T10:34:16;53.37;;;19.60;;
19183;SDS011;9724;51.194;6.856;2022-12-01T10:36:43;55.73;;;19.87;;
19183;SDS011;9724;51.194;6.856;2022-12-01T10:39:13;58.03;;;21.07;;
19183;SDS011;9724;51.194;6.856;2022-12-01T10:41:42;55.80;;;21.10;;
19183;SDS011;9724;51.194;6.856;2022-12-01T10:44:08;60.73;;;20.73;;
19183;SDS011;9724;51.194;6.856;2022-12-01T10:46:36;54.67;;;19.77;;
19183;SDS011;9724;51.194;6.856;2022-12-01T10:49:07;53.67;;;19.60;;
19183;SDS011;9724;51.194;6.856;2022-12-01T10:51:45;53.17;;;18.47;;
19183;SDS011;9724;51.194;6.856;2022-12-01T10:54:13;53.67;;;18.53;;
19183;SDS011;9724;51.194;6.856;2022-12-01T10:56:39;45.60;;;19.03;;
19183;SDS011;9724;51.194;6.856;2022-12-01T10:59:14;53.87;;;18.43;;
19183;SDS011;9724;51.194;6.856;2022-12-01T11:01:47;56.67;;;19.87;;
19183;SDS011;9724;51.194;6.856;2022-12-01T11:04:20;48.83;;;20.00;;
19183;SDS011;9724;51.194;6.856;2022-12-01T11:06:50;42.20;;;18.47;;
19183;SDS011;9724;51.194;6.856;2022-12-01T11:09:17;44.27;;;18.47;;
19183;SDS011;9724;51.194;6.856;2022-12-01T11:11:53;47.67;;;18.90;;
19183;SDS011;9724;51.194;6.856;2022-12-01T11:14:21;49.73;;;19.83;;
19183;SDS011;9724;51.194;6.856;2022-12-01T11:16:50;49.70;;;19.77;;
19183;SDS011;9724;51.194;6.856;2022-12-01T11:19:19;47.00;;;18.47;;
19183;SDS011;9724;51.194;6.856;2022-12-01T11:21:54;50.17;;;20.47;;
19183;SDS011;9724;51.194;6.856;2022-12-01T11:24:24;47.53;;;19.13;;
19183;SDS011;9724;51.194;6.856;2022-12-01T11:26:57;42.17;;;18.10;;
19183;SDS011;9724;51.194;6.856;2022-12-01T11:29:26;47.80;;;18.63;;
19183;SDS011;9724;51.194;6.856;2022-12-01T11:31:55;50.50;;;20.70;;
19183;SDS011;9724;51.194;6.856;2022-12-01T11:34:22;52.53;;;21.17;;
19183;SDS011;9724;51.194;6.856;2022-12-01T11:36:50;44.00;;;19.57;;
19183;SDS011;9724;51.194;6.856;2022-12-01T11:39:21;42.67;;;19.37;;
19183;SDS011;9724;51.194;6.856;2022-12-01T11:41:53;49.47;;;19.87;;
19183;SDS011;9724;51.194;6.856;2022-12-01T11:44:20;46.40;;;20.87;;
19183;SDS011;9724;51.194;6.856;2022-12-01T11:47:13;51.33;;;19.87;;
19183;SDS011;9724;51.194;6.856;2022-12-01T11:49:51;44.47;;;18.90;;
19183;SDS011;9724;51.194;6.856;2022-12-01T11:52:23;47.50;;;19.77;;
19183;SDS011;9724;51.194;6.856;2022-12-01T11:54:56;46.97;;;20.67;;
19183;SDS011;9724;51.194;6.856;2022-12-01T11:57:24;53.73;;;21.37;;
19183;SDS011;9724;51.194;6.856;2022-12-01T12:00:00;48.67;;;21.13;;
19183;SDS011;9724;51.194;6.856;2022-12-01T12:02:29;48.77;;;20.43;;
19183;SDS011;9724;51.194;6.856;2022-12-01T12:05:05;51.07;;;22.03;;
19183;SDS011;9724;51.194;6.856;2022-12-01T12:07:53;46.87;;;20.47;;
19183;SDS011;9724;51.194;6.856;2022-12-01T12:10:31;47.03;;;21.10;;
19183;SDS011;9724;51.194;6.856;2022-12-01T12:13:10;45.70;;;21.27;;
19183;SDS011;9724;51.194;6.856;2022-12-01T12:15:50;45.03;;;21.00;;
19183;SDS011;9724;51.194;6.856;2022-12-01T12:18:26;47.27;;;21.00;;
19183;SDS011;9724;51.194;6.856;2022-12-01T12:21:16;49.97;;;20.87;;
19183;SDS011;9724;51.194;6.856;2022-12-01T12:23:53;50.23;;;22.43;;
19183;SDS011;9724;51.194;6.856;2022-12-01T12:26:27;52.37;;;21.60;;
19183;SDS011;9724;51.194;6.856;2022-12-01T12:28:59;47.70;;;22.33;;
19183;SDS011;9724;51.194;6.856;2022-12-01T12:31:42;47.93;;;21.87;;
19183;SDS011;9724;51.194;6.856;2022-12-01T12:34:18;52.77;;;22.60;;
19183;SDS011;9724;51.194;6.856;2022-12-01T12:36:55;52.77;;;22.87;;
19183;SDS011;9724;51.194;6.856;2022-12-01T12:39:34;54.97;;;23.70;;
19183;SDS011;9724;51.194;6.856;2022-12-01T12:42:16;54.23;;;23.77;;
19183;SDS011;9724;51.194;6.856;2022-12-01T12:44:48;55.37;;;24.00;;
19183;SDS011;9724;51.194;6.856;2022-12-01T12:47:24;55.07;;;24.07;;
19183;SDS011;9724;51.194;6.856;2022-12-01T12:50:02;59.90;;;25.70;;
19183;SDS011;9724;51.194;6.856;2022-12-01T12:52:42;54.53;;;25.83;;
19183;SDS011;9724;51.194;6.856;2022-12-01T12:55:11;64.23;;;25.90;;
19183;SDS011;9724;51.194;6.856;2022-12-01T12:57:42;58.90;;;25.87;;
19183;SDS011;9724;51.194;6.856;2022-12-01T13:00:12;59.20;;;25.27;;
19183;SDS011;9724;51.194;6.856;2022-12-01T13:02:41;67.57;;;27.53;;
19183;SDS011;9724;51.194;6.856;2022-12-01T13:05:11;61.73;;;26.13;;
19183;SDS011;9724;51.194;6.856;2022-12-01T13:07:43;59.70;;;25.57;;
19183;SDS011;9724;51.194;6.856;2022-12-01T13:10:19;59.87;;;26.30;;
19183;SDS011;9724;51.194;6.856;2022-12-01T13:12:51;62.27;;;26.27;;
19183;SDS011;9724;51.194;6.856;2022-12-01T13:15:21;62.30;;;26.87;;
19183;SDS011;9724;51.194;6.856;2022-12-01T13:17:48;61.43;;;27.53;;
19183;SDS011;9724;51.194;6.856;2022-12-01T13:20:16;67.07;;;27.27;;
19183;SDS011;9724;51.194;6.856;2022-12-01T13:22:46;67.40;;;29.70;;
19183;SDS011;9724;51.194;6.856;2022-12-01T13:25:13;67.50;;;29.03;;
19183;SDS011;9724;51.194;6.856;2022-12-01T13:27:43;72.87;;;30.60;;
19183;SDS011;9724;51.194;6.856;2022-12-01T13:30:18;64.43;;;28.40;;
19183;SDS011;9724;51.194;6.856;2022-12-01T13:32:45;67.43;;;28.20;;
19183;SDS011;9724;51.194;6.856;2022-12-01T13:35:19;75.50;;;29.73;;
19183;SDS011;9724;51.194;6.856;2022-12-01T13:37:47;70.73;;;28.37;;
19183;SDS011;9724;51.194;6.856;2022-12-01T13:40:18;70.97;;;29.60;;
19183;SDS011;9724;51.194;6.856;2022-12-01T13:42:50;69.60;;;30.57;;
19183;SDS011;9724;51.194;6.856;2022-12-01T13:45:21;70.50;;;29.20;;
19183;SDS011;9724;51.194;6.856;2022-12-01T13:47:49;70.37;;;29.47;;
19183;SDS011;9724;51.194;6.856;2022-12-01T13:53:08;71.23;;;30.53;;
19183;SDS011;9724;51.194;6.856;2022-12-01T13:55:41;64.63;;;28.50;;
19183;SDS011;9724;51.194;6.856;2022-12-01T13:58:24;80.13;;;31.33;;
19183;SDS011;9724;51.194;6.856;2022-12-01T14:04:27;76.27;;;32.77;;
19183;SDS011;9724;51.194;6.856;2022-12-01T14:09:54;75.40;;;33.07;;
19183;SDS011;9724;51.194;6.856;2022-12-01T14:12:23;81.90;;;33.03;;
19183;SDS011;9724;51.194;6.856;2022-12-01T14:14:52;81.93;;;31.70;;
19183;SDS011;9724;51.194;6.856;2022-12-01T14:17:24;77.17;;;32.83;;
19183;SDS011;9724;51.194;6.856;2022-12-01T14:19:52;79.80;;;32.10;;
19183;SDS011;9724;51.194;6.856;2022-12-01T14:22:31;82.07;;;33.53;;
19183;SDS011;9724;51.194;6.856;2022-12-01T14:24:58;77.77;;;32.10;;
19183;SDS011;9724;51.194;6.856;2022-12-01T14:27:32;91.10;;;34.90;;
19183;SDS011;9724;51.194;6.856;2022-12-01T14:35:59;83.33;;;33.97;;
19183;SDS011;9724;51.194;6.856;2022-12-01T14:38:25;78.87;;;32.83;;
19183;SDS011;9724;51.194;6.856;2022-12-01T14:40:52;82.30;;;34.00;;
19183;SDS011;9724;51.194;6.856;2022-12-01T14:43:19;99.23;;;37.73;;
19183;SDS011;9724;51.194;6.856;2022-12-01T14:46:05;89.50;;;35.00;;
19183;SDS011;9724;51.194;6.856;2022-12-01T14:48:35;100.40;;;37.03;;
19183;SDS011;9724;51.194;6.856;2022-12-01T14:51:11;91.23;;;37.53;;
19183;SDS011;9724;51.194;6.856;2022-12-01T14:53:42;88.47;;;35.60;;
19183;SDS011;9724;51.194;6.856;2022-12-01T14:56:10;92.50;;;35.20;;
19183;SDS011;9724;51.194;6.856;2022-12-01T14:58:38;82.57;;;34.03;;
19183;SDS011;9724;51.194;6.856;2022-12-01T15:01:15;89.00;;;34.83;;